Time;durP1;ratioP1;P1;durP2;ratioP2;P2;SDS_P1;SDS_P2;PMS_P1;PMS_P2;Temp;Humidity;BMP_temperature;BMP_pressure;BME280_temperature;BME280_humidity;BME280_pressure;Samples;Min_cycle;Max_cycle;Signal;HPM_P1;HPM_P2
2022/11/08 00:01:57;;;;;;;10.57;4.97;;;;;;;-0.91;100.00;100537.34;1673966;84;21089;-73
2022/11/08 00:04:25;;;;;;;11.07;4.70;;;;;;;-0.91;100.00;100539.15;1666847;86;21041;-73
2022/11/08 00:15:09;;;;;;;10.07;4.37;;;;;;;-0.99;100.00;100522.33;1636631;88;21020;-71
2022/11/08 00:17:36;;;;;;;13.83;5.63;;;;;;;-1.02;100.00;100527.32;1637178;88;21063;-72
2022/11/08 00:20:07;;;;;;;11.47;4.83;;;;;;;-1.05;100.00;100527.96;1636893;88;21050;-72
2022/11/08 00:22:34;;;;;;;12.27;5.20;;;;;;;-1.05;100.00;100527.96;1636518;88;21038;-73
2022/11/08 00:25:01;;;;;;;13.00;5.23;;;;;;;-1.06;100.00;100523.13;1636530;88;21587;-74
2022/11/08 00:27:28;;;;;;;10.33;4.80;;;;;;;-1.04;100.00;100526.55;1636326;88;21058;-73
2022/11/08 00:29:55;;;;;;;11.63;5.07;;;;;;;-1.02;100.00;100519.84;1636247;88;21099;-74
2022/11/08 00:32:25;;;;;;;9.73;4.73;;;;;;;-1.01;100.00;100521.53;1636316;88;21090;-73
2022/11/08 00:34:52;;;;;;;10.87;4.80;;;;;;;-1.00;100.00;100525.91;1635219;88;21058;-72
2022/11/08 00:37:21;;;;;;;11.33;5.20;;;;;;;-0.99;100.00;100522.33;1636425;88;21039;-73
2022/11/08 00:39:49;;;;;;;11.70;5.07;;;;;;;-0.96;100.00;100520.80;1636452;88;21509;-72
2022/11/08 00:42:16;;;;;;;9.57;4.77;;;;;;;-0.92;100.00;100526.36;1636509;88;21086;-73
2022/11/08 00:44:42;;;;;;;15.00;5.70;;;;;;;-0.91;100.00;100520.56;1636588;88;21082;-73
2022/11/08 00:47:10;;;;;;;14.23;5.67;;;;;;;-0.89;100.00;100522.17;1636133;87;21062;-73
2022/11/08 00:49:37;;;;;;;12.03;5.67;;;;;;;-0.89;100.00;100514.69;1636237;88;21540;-74
2022/11/08 00:52:05;;;;;;;13.17;5.50;;;;;;;-0.89;100.00;100503.59;1636570;88;21058;-73
2022/11/08 00:54:32;;;;;;;12.17;5.37;;;;;;;-0.88;100.00;100507.97;1636352;88;21458;-73
2022/11/08 00:56:59;;;;;;;11.53;5.10;;;;;;;-0.87;100.00;100509.66;1636494;88;21129;-72
2022/11/08 00:59:26;;;;;;;12.87;5.27;;;;;;;-0.87;100.00;100496.88;1666962;86;21029;-74
2022/11/08 01:01:52;;;;;;;13.13;5.57;;;;;;;-0.87;100.00;100488.91;1635756;85;21090;-73
2022/11/08 01:04:19;;;;;;;11.07;4.90;;;;;;;-0.87;100.00;100490.23;1683907;85;21039;-74
2022/11/08 01:06:47;;;;;;;14.80;5.47;;;;;;;-0.89;100.00;100493.45;1652510;86;21525;-73
2022/11/08 01:09:14;;;;;;;11.33;4.90;;;;;;;-0.90;100.00;100490.39;1685742;85;21031;-73
2022/11/08 01:11:45;;;;;;;11.97;5.00;;;;;;;-0.90;100.00;100491.73;1685541;85;21082;-74
2022/11/08 01:14:10;;;;;;;12.03;4.93;;;;;;;-0.91;100.00;100481.59;1690080;85;21082;-72
2022/11/08 01:16:38;;;;;;;15.57;5.03;;;;;;;-0.93;100.00;100486.13;1689722;85;21059;-74
2022/11/08 01:19:04;;;;;;;15.77;5.90;;;;;;;-0.96;100.00;100479.66;1689014;85;21027;-73
2022/11/08 01:21:31;;;;;;;12.10;5.37;;;;;;;-0.97;100.00;100481.95;1690011;85;21523;-72
2022/11/08 01:23:58;;;;;;;12.13;5.53;;;;;;;-1.01;100.00;100478.61;1690037;85;21054;-72
2022/11/08 01:26:27;;;;;;;10.77;5.10;;;;;;;-1.02;100.00;100477.37;1689906;85;21042;-72
2022/11/08 01:28:54;;;;;;;12.67;6.20;;;;;;;-1.03;100.00;100477.81;1690352;85;21042;-72
2022/11/08 01:31:26;;;;;;;15.10;6.03;;;;;;;-1.03;100.00;100480.95;1690220;85;21042;-73
2022/11/08 01:33:53;;;;;;;16.87;6.97;;;;;;;-1.02;100.00;100479.54;1592967;89;21132;-72
2022/11/08 01:36:22;;;;;;;17.70;7.13;;;;;;;-1.00;100.00;100484.77;1601956;90;21626;-74
2022/11/08 01:38:50;;;;;;;15.47;6.30;;;;;;;-0.98;100.00;100482.88;1602232;90;21080;-74
2022/11/08 01:41:20;;;;;;;12.20;5.73;;;;;;;-0.98;100.00;100481.55;1601692;90;21068;-73
2022/11/08 01:43:51;;;;;;;10.40;4.77;;;;;;;-0.98;100.00;100482.88;1594698;90;21056;-73
2022/11/08 01:46:30;;;;;;;12.70;5.73;;;;;;;-0.98;100.00;100481.07;1602660;90;21056;-73
2022/11/08 01:49:35;;;;;;;11.93;5.17;;;;;;;-0.94;100.00;100483.08;1602484;90;21169;-71
2022/11/08 01:52:15;;;;;;;;;;;;;;;-0.92;100.00;100477.23;1608975;89;21253;-73
2022/11/08 01:55:03;;;;;;;13.87;5.43;;;;;;;-0.85;100.00;100479.05;1552152;91;20185;-73
2022/11/08 01:57:43;;;;;;;8.77;4.53;;;;;;;-0.83;100.00;100479.36;1550052;93;21154;-73
2022/11/08 02:00:11;;;;;;;12.03;5.30;;;;;;;-0.82;100.00;100473.09;1549888;93;21612;-74
2022/11/08 02:02:40;;;;;;;10.90;5.53;;;;;;;-0.79;100.00;100483.55;1552748;92;21146;-73
2022/11/08 02:05:23;;;;;;;17.23;6.30;;;;;;;-0.75;100.00;100483.38;1556055;92;21053;-72
2022/11/08 02:07:41;;;;;;;15.37;6.67;;;;;;;-0.72;100.00;100483.21;1556222;89;21045;-72
2022/11/08 02:10:08;;;;;;;13.97;5.87;;;;;;;-0.70;100.00;100486.62;1554709;88;21117;-74
2022/11/08 02:12:35;;;;;;;13.57;6.30;;;;;;;-0.71;100.00;100491.55;1553781;91;21112;-74
2022/11/08 02:15:03;;;;;;;16.35;6.60;;;;;;;-0.68;100.00;100492.22;1534436;92;21142;-73
2022/11/08 02:17:31;;;;;;;11.37;5.50;;;;;;;-0.65;100.00;100492.53;1553999;92;21069;-72
2022/11/08 02:19:58;;;;;;;14.40;5.87;;;;;;;-0.64;100.00;100495.11;1553791;92;21089;-72
2022/11/08 02:22:30;;;;;;;13.60;5.57;;;;;;;-0.62;100.00;100510.48;1553805;92;21141;-73
2022/11/08 02:24:57;;;;;;;13.47;5.50;;;;;;;-0.62;100.00;100510.93;1553885;92;21102;-74
2022/11/08 02:27:25;;;;;;;15.20;5.93;;;;;;;-0.63;100.00;100502.11;1553976;91;21117;-74
2022/11/08 02:29:53;;;;;;;10.40;5.27;;;;;;;-0.64;100.00;100498.22;1557301;91;21102;-73
2022/11/08 02:32:20;;;;;;;12.83;5.20;;;;;;;-0.64;100.00;100491.58;1597561;88;21073;-73
2022/11/08 02:34:55;;;;;;;11.67;5.17;;;;;;;-0.60;100.00;100494.46;1597604;90;21554;-72
2022/11/08 02:37:22;;;;;;;11.40;5.57;;;;;;;-0.59;100.00;100493.50;1524073;94;21084;-73
2022/11/08 02:39:48;;;;;;;10.57;5.10;;;;;;;-0.64;100.00;100495.56;1524497;94;21603;-73
2022/11/08 02:42:17;;;;;;;10.60;4.90;;;;;;;-0.68;100.00;100493.55;1524457;94;21105;-74
2022/11/08 02:44:45;;;;;;;13.27;5.43;;;;;;;-0.68;100.00;100500.19;1527513;94;21627;-73
2022/11/08 02:47:14;;;;;;;9.63;5.00;;;;;;;-0.67;100.00;100497.09;1529114;94;21474;-73
2022/11/08 02:49:41;;;;;;;10.97;4.73;;;;;;;-0.64;100.00;100494.23;1529247;94;21607;-73
2022/11/08 02:52:10;;;;;;;17.20;6.23;;;;;;;-0.63;100.00;100488.83;1573863;90;21094;-72
2022/11/08 02:54:36;;;;;;;12.87;4.93;;;;;;;-0.58;100.00;100501.38;1548847;93;21090;-74
2022/11/08 02:57:03;;;;;;;11.97;5.00;;;;;;;-0.55;100.00;100504.31;1548996;92;21062;-75
2022/11/08 02:59:30;;;;;;;12.73;5.57;;;;;;;-0.50;100.00;100506.23;1549287;91;21066;-74
2022/11/08 03:01:57;;;;;;;12.83;5.27;;;;;;;-0.44;100.00;100508.56;1549116;92;21137;-74
2022/11/08 03:04:23;;;;;;;13.57;5.87;;;;;;;-0.40;100.00;100512.73;1559578;92;21168;-73
2022/11/08 03:06:51;;;;;;;15.93;6.10;;;;;;;-0.36;100.00;100513.89;1559580;92;21121;-72
2022/11/08 03:09:18;;;;;;;12.23;5.50;;;;;;;-0.36;100.00;100513.89;1585526;90;21066;-73
2022/11/08 03:11:45;;;;;;;17.20;6.10;;;;;;;-0.37;100.00;100510.39;1590110;90;21113;-74
2022/11/08 03:14:12;;;;;;;12.10;5.07;;;;;;;-0.35;100.00;100511.60;1593114;90;21143;-74
2022/11/08 03:16:40;;;;;;;12.47;4.87;;;;;;;-0.34;100.00;100515.98;1592995;90;21497;-73
2022/11/08 03:19:12;;;;;;;13.73;5.43;;;;;;;-0.32;100.00;100518.95;1588342;90;21102;-75
2022/11/08 03:21:41;;;;;;;15.30;6.20;;;;;;;-0.27;100.00;100522.66;1581552;91;21067;-75
2022/11/08 03:24:09;;;;;;;12.50;5.80;;;;;;;-0.25;100.00;100518.09;1581820;91;21061;-74
2022/11/08 03:26:36;;;;;;;13.93;6.10;;;;;;;-0.25;100.00;100512.78;1581537;91;21107;-73
2022/11/08 03:29:04;;;;;;;13.40;5.20;;;;;;;-0.26;100.00;100515.92;1581455;91;21030;-74
2022/11/08 03:31:31;;;;;;;13.13;5.43;;;;;;;-0.26;100.00;100503.96;1581562;91;21097;-73
2022/11/08 03:33:58;;;;;;;14.00;5.27;;;;;;;-0.24;100.00;100503.39;1621099;85;21045;-75
2022/11/08 03:36:25;;;;;;;12.73;5.50;;;;;;;-0.22;100.00;100505.97;1662121;86;21081;-73
2022/11/08 03:38:53;;;;;;;11.07;4.90;;;;;;;-0.20;100.00;100508.91;1662238;86;21038;-73
2022/11/08 03:41:21;;;;;;;12.27;5.23;;;;;;;-0.19;100.00;100508.45;1662990;86;21073;-74
2022/11/08 03:43:48;;;;;;;14.17;5.80;;;;;;;-0.15;100.00;100509.13;1669650;85;21027;-72
2022/11/08 03:46:15;;;;;;;12.93;5.20;;;;;;;-0.10;100.00;100511.04;1685828;84;21035;-74
2022/11/08 03:48:42;;;;;;;12.93;5.47;;;;;;;-0.10;100.00;100513.22;1685836;85;21003;-74
2022/11/08 03:51:09;;;;;;;11.73;5.47;;;;;;;-0.10;100.00;100508.38;1685915;85;21031;-74
2022/11/08 03:53:35;;;;;;;16.93;6.07;;;;;;;-0.08;100.00;100510.47;1685896;85;21079;-74
2022/11/08 03:56:02;;;;;;;17.37;6.40;;;;;;;-0.08;100.00;100519.29;1685660;85;20983;-74
2022/11/08 03:58:29;;;;;;;14.47;5.77;;;;;;;-0.07;100.00;100522.34;1685838;85;21015;-74
2022/11/08 04:00:57;;;;;;;13.07;5.33;;;;;;;-0.09;100.00;100522.91;1685685;85;21094;-74
2022/11/08 04:03:24;;;;;;;13.37;5.83;;;;;;;-0.09;100.00;100524.25;1687138;83;21070;-74
2022/11/08 04:05:51;;;;;;;15.47;6.00;;;;;;;-0.07;100.00;100526.33;1691344;84;21030;-74
2022/11/08 04:08:18;;;;;;;16.10;6.43;;;;;;;-0.06;100.00;100530.69;1692517;84;21126;-73
2022/11/08 04:10:45;;;;;;;13.30;5.73;;;;;;;-0.06;100.00;100524.04;1691264;84;21087;-75
2022/11/08 04:15:53;;;;;;;12.50;5.07;;;;;;;-0.07;100.00;100528.98;1641893;87;21051;-73
2022/11/08 04:21:17;;;;;;;13.20;5.57;;;;;;;-0.03;100.00;100528.33;1641450;87;21031;-74
2022/11/08 04:23:48;;;;;;;14.20;5.83;;;;;;;-0.05;100.00;100527.09;1639361;87;21078;-74
2022/11/08 04:26:15;;;;;;;15.20;5.57;;;;;;;-0.02;100.00;100528.25;1592239;90;21708;-73
2022/11/08 04:28:42;;;;;;;10.17;4.87;;;;;;;-0.03;100.00;100528.33;1592209;90;21110;-74
2022/11/08 04:31:14;;;;;;;12.77;5.37;;;;;;;-0.02;100.00;100534.02;1589793;90;21074;-75
2022/11/08 04:33:40;;;;;;;17.40;6.23;;;;;;;-0.04;100.00;100539.42;1559628;92;21060;-75
2022/11/08 04:36:11;;;;;;;16.10;5.90;;;;;;;-0.02;100.00;100534.02;1559644;92;21132;-75
2022/11/08 04:38:39;;;;;;;12.93;5.40;;;;;;;-0.03;100.00;100534.50;1559377;92;21118;-75
2022/11/08 04:41:13;;;;;;;16.03;5.87;;;;;;;-0.03;100.00;100541.14;1559864;92;21095;-74
2022/11/08 04:43:43;;;;;;;16.10;5.80;;;;;;;-0.04;100.00;100543.41;1553994;92;21128;-75
2022/11/08 04:46:13;;;;;;;13.13;6.00;;;;;;;0.00;100.00;100546.77;1533008;94;21140;-75
2022/11/08 04:48:42;;;;;;;12.93;5.57;;;;;;;0.02;100.00;100545.32;1532918;94;21184;-73
2022/11/08 04:51:13;;;;;;;15.07;6.07;;;;;;;0.04;100.00;100545.63;1533001;94;21096;-73
2022/11/08 04:53:40;;;;;;;15.90;6.17;;;;;;;0.08;100.00;100542.31;1528271;93;21563;-76
2022/11/08 04:56:13;;;;;;;12.47;5.10;;;;;;;0.12;100.00;100545.16;1538529;93;21108;-75
2022/11/08 04:58:44;;;;;;;10.98;5.12;;;;;;;0.13;100.00;100543.75;1545104;93;21021;-76
2022/11/08 05:01:14;;;;;;;15.43;6.60;;;;;;;0.19;100.00;100553.16;1545255;92;21088;-75
2022/11/08 05:03:44;;;;;;;;;;;;;;;0.23;100.00;100557.81;1547778;91;21589;-74
2022/11/08 05:06:13;;;;;;;12.97;5.30;;;;;;;0.24;100.00;100562.20;1598903;90;20147;-74
2022/11/08 05:08:42;;;;;;;13.23;5.53;;;;;;;0.25;100.00;100562.56;1599225;89;21102;-75
2022/11/08 05:11:14;;;;;;;16.03;6.20;;;;;;;0.23;100.00;100565.80;1600325;90;21111;-74
2022/11/08 05:13:42;;;;;;;16.40;6.80;;;;;;;0.20;100.00;100577.48;1598176;90;21106;-74
2022/11/08 05:16:18;;;;;;;16.90;6.80;;;;;;;0.20;100.00;100571.32;1597995;90;21627;-75
2022/11/08 05:18:45;;;;;;;14.20;5.37;;;;;;;0.17;100.00;100582.50;1600663;90;21038;-75
2022/11/08 05:24:03;;;;;;;13.13;5.63;;;;;;;0.15;100.00;100578.23;1585602;90;21070;-76
2022/11/08 05:26:32;;;;;;;14.83;5.73;;;;;;;0.17;100.00;100563.88;1583875;91;21138;-75
2022/11/08 05:28:59;;;;;;;16.63;6.40;;;;;;;0.17;100.00;100564.36;1563784;91;21631;-75
2022/11/08 05:31:26;;;;;;;14.23;5.77;;;;;;;0.17;100.00;100566.54;1680316;85;21527;-74
2022/11/08 05:33:53;;;;;;;14.90;5.43;;;;;;;0.19;100.00;100567.78;1691580;85;21073;-74
2022/11/08 05:36:19;;;;;;;18.67;6.20;;;;;;;0.23;100.00;100570.66;1660276;86;21022;-77
2022/11/08 05:38:46;;;;;;;17.07;6.17;;;;;;;0.24;100.00;100571.03;1691704;83;21070;-76
2022/11/08 05:41:17;;;;;;;16.30;5.47;;;;;;;0.27;100.00;100570.85;1691456;85;21121;-76
2022/11/08 05:43:49;;;;;;;14.23;5.87;;;;;;;0.30;100.00;100579.98;1660285;86;21090;-76
2022/11/08 05:46:17;;;;;;;16.50;6.17;;;;;;;0.33;100.00;100582.92;1684409;85;21094;-73
2022/11/08 05:48:45;;;;;;;17.40;6.53;;;;;;;0.34;100.00;100581.98;1683929;85;21094;-73
2022/11/08 05:51:13;;;;;;;18.70;6.73;;;;;;;0.37;100.00;100596.41;1684497;85;21043;-76
2022/11/08 05:53:41;;;;;;;23.00;8.10;;;;;;;0.41;100.00;100602.41;1684623;85;21094;-75
2022/11/08 05:56:09;;;;;;;15.40;6.83;;;;;;;0.40;100.00;100606.87;1685645;85;21027;-75
2022/11/08 05:58:35;;;;;;;18.43;6.67;;;;;;;0.40;100.00;100612.20;1686510;83;20984;-74
2022/11/08 06:01:05;;;;;;;19.93;7.23;;;;;;;0.40;100.00;100612.20;1686241;83;21014;-74
2022/11/08 06:03:33;;;;;;;17.97;7.47;;;;;;;0.41;100.00;100620.58;1644569;87;21013;-73
2022/11/08 06:06:05;;;;;;;26.90;8.97;;;;;;;0.44;100.00;100615.53;1660199;86;21092;-75
2022/11/08 06:08:32;;;;;;;29.98;10.45;;;;;;;0.44;100.00;100620.85;1663114;85;21012;-75
2022/11/08 06:11:08;;;;;;;19.93;7.37;;;;;;;0.46;100.00;100617.17;1662540;86;21080;-75
2022/11/08 06:13:36;;;;;;;22.47;8.07;;;;;;;0.50;100.00;100623.16;1647323;87;21049;-76
2022/11/08 06:16:06;;;;;;;26.60;8.87;;;;;;;0.51;100.00;100616.42;1647337;87;21116;-74
2022/11/08 06:18:36;;;;;;;24.93;8.77;;;;;;;0.52;100.00;100616.78;1640788;87;21432;-74
2022/11/08 06:21:06;;;;;;;20.07;7.47;;;;;;;0.55;100.00;100621.93;1647378;86;21623;-76
2022/11/08 06:23:32;;;;;;;22.50;8.33;;;;;;;0.59;100.00;100627.08;1648182;87;21031;-75
2022/11/08 06:25:59;;;;;;;24.97;8.57;;;;;;;0.60;100.00;100635.42;1648116;87;21057;-76
2022/11/08 06:28:26;;;;;;;19.53;7.50;;;;;;;0.63;100.00;100634.77;1648464;87;21022;-76
2022/11/08 06:30:54;;;;;;;19.70;7.03;;;;;;;0.68;100.00;100639.34;1648058;87;21120;-76
2022/11/08 06:33:20;;;;;;;26.30;9.67;;;;;;;0.69;100.00;100647.72;1644993;87;21046;-76
2022/11/08 06:35:49;;;;;;;22.57;9.30;;;;;;;0.69;100.00;100649.05;1648726;84;21643;-73
2022/11/08 06:38:15;;;;;;;26.83;10.63;;;;;;;0.70;100.00;100650.74;1648241;87;21013;-76
2022/11/08 06:40:43;;;;;;;26.33;9.43;;;;;;;0.70;100.00;100653.41;1599050;89;21053;-74
2022/11/08 06:43:10;;;;;;;25.23;8.50;;;;;;;0.70;100.00;100654.73;1637201;88;21051;-76
2022/11/08 06:45:38;;;;;;;23.03;8.67;;;;;;;0.72;100.00;100650.17;1632801;88;21093;-74
2022/11/08 06:48:05;;;;;;;18.20;6.60;;;;;;;0.72;100.00;100650.66;1633082;88;21003;-75
2022/11/08 06:50:33;;;;;;;21.73;8.17;;;;;;;0.75;100.00;100651.81;1633560;86;21050;-74
2022/11/08 06:53:02;;;;;;;21.63;7.33;;;;;;;0.77;100.00;100649.06;1633306;88;21038;-74
2022/11/08 06:55:30;;;;;;;26.33;8.97;;;;;;;0.81;100.00;100643.92;1632774;88;21176;-74
2022/11/08 06:57:56;;;;;;;29.00;9.73;;;;;;;0.84;100.00;100643.73;1632644;88;21106;-73
2022/11/08 07:00:24;;;;;;;21.30;8.43;;;;;;;0.89;100.00;100643.83;1646937;86;21040;-75
2022/11/08 07:02:58;;;;;;;28.17;10.17;;;;;;;0.91;100.00;100641.92;1666544;86;21059;-76
2022/11/08 07:05:26;;;;;;;20.83;8.23;;;;;;;0.94;100.00;100636.91;1667934;84;21519;-73
2022/11/08 07:07:53;;;;;;;23.20;8.43;;;;;;;0.95;100.00;100638.11;1648994;86;21093;-75
2022/11/08 07:10:23;;;;;;;21.57;8.43;;;;;;;0.99;100.00;100638.78;1660229;86;21061;-74
2022/11/08 07:13:10;;;;;;;24.07;8.67;;;;;;;1.03;100.00;100644.31;1662838;86;21082;-76
2022/11/08 07:15:39;;;;;;;22.97;8.10;;;;;;;1.04;100.00;100639.84;1662986;86;21057;-75
2022/11/08 07:18:09;;;;;;;22.13;8.60;;;;;;;1.03;100.00;100633.66;1670468;86;21017;-73
2022/11/08 07:20:38;;;;;;;23.00;8.47;;;;;;;1.01;100.00;100636.02;1622900;88;21101;-75
2022/11/08 07:23:05;;;;;;;19.20;7.87;;;;;;;0.94;100.00;100628.91;1623047;88;21057;-76
2022/11/08 07:25:33;;;;;;;22.27;9.40;;;;;;;0.93;100.00;100628.52;1609941;88;21192;-74
2022/11/08 07:28:02;;;;;;;24.13;9.67;;;;;;;0.93;100.00;100626.70;1622645;88;21458;-72
2022/11/08 07:30:29;;;;;;;28.73;11.87;;;;;;;0.97;100.00;100629.19;1622476;88;21066;-74
2022/11/08 07:32:56;;;;;;;25.63;9.60;;;;;;;0.99;100.00;100631.27;1622557;86;21065;-72
2022/11/08 07:35:23;;;;;;;23.83;9.60;;;;;;;0.96;100.00;100631.00;1621465;86;21559;-73
2022/11/08 07:37:50;;;;;;;22.13;8.23;;;;;;;0.97;100.00;100634.02;1621066;88;21058;-71
2022/11/08 07:40:17;;;;;;;20.57;8.43;;;;;;;0.98;100.00;100641.08;1620452;88;21070;-71
2022/11/08 07:42:44;;;;;;;22.27;8.50;;;;;;;1.03;100.00;100643.47;1620493;88;21544;-72
2022/11/08 07:45:11;;;;;;;26.80;8.87;;;;;;;1.04;100.00;100650.00;1611172;88;21055;-71
2022/11/08 07:47:38;;;;;;;27.10;9.43;;;;;;;1.00;100.00;100643.16;1610565;89;21106;-70
2022/11/08 07:50:06;;;;;;;19.20;7.70;;;;;;;0.99;100.00;100641.92;1611000;88;21263;-71
2022/11/08 07:52:33;;;;;;;28.47;10.57;;;;;;;1.02;100.00;100641.26;1610663;89;21106;-70
2022/11/08 07:54:59;;;;;;;22.67;8.23;;;;;;;1.06;100.00;100642.80;1611448;88;21569;-71
2022/11/08 07:57:26;;;;;;;22.73;8.53;;;;;;;1.12;100.00;100642.89;1610947;89;21047;-70
2022/11/08 07:59:53;;;;;;;28.50;10.13;;;;;;;1.16;100.00;100639.56;1616126;88;21060;-70
2022/11/08 08:02:19;;;;;;;24.93;8.40;;;;;;;1.20;100.00;100639.73;1622122;86;21104;-71
2022/11/08 08:04:46;;;;;;;17.77;7.37;;;;;;;1.23;100.00;100635.06;1645694;86;21044;-71
2022/11/08 08:07:13;;;;;;;25.33;11.17;;;;;;;1.23;100.00;100643.55;1654986;87;21111;-69
2022/11/08 08:09:40;;;;;;;41.00;18.50;;;;;;;1.17;100.00;100634.59;1657594;86;21195;-72
2022/11/08 08:12:08;;;;;;;29.90;14.77;;;;;;;1.14;100.00;100636.98;1657439;87;21125;-71
2022/11/08 08:14:37;;;;;;;37.60;17.57;;;;;;;1.13;100.00;100629.94;1657417;86;21653;-71
2022/11/08 08:17:07;;;;;;;30.40;14.03;;;;;;;1.18;100.00;100634.98;1678711;84;21595;-70
2022/11/08 08:19:34;;;;;;;30.20;12.57;;;;;;;1.19;100.00;100634.02;1676926;85;21495;-71
2022/11/08 08:22:01;;;;;;;24.30;10.17;;;;;;;1.18;100.00;100634.50;1698503;84;21027;-70
2022/11/08 08:24:28;;;;;;;34.53;14.30;;;;;;;1.18;100.00;100637.65;1676042;85;21457;-71
2022/11/08 08:26:54;;;;;;;35.70;15.83;;;;;;;1.17;100.00;100632.80;1675632;85;21485;-72
2022/11/08 08:29:22;;;;;;;46.40;19.53;;;;;;;1.17;100.00;100638.59;1648076;87;21030;-71
2022/11/08 08:31:49;;;;;;;52.83;28.27;;;;;;;1.16;100.00;100634.23;1675658;85;21508;-72
2022/11/08 08:34:18;;;;;;;33.97;12.57;;;;;;;1.16;100.00;100621.75;1676352;85;21018;-73
2022/11/08 08:36:45;;;;;;;28.53;12.27;;;;;;;1.19;100.00;100620.70;1677160;85;21058;-72
2022/11/08 08:39:14;;;;;;;30.23;13.23;;;;;;;1.19;100.00;100616.70;1680464;85;21591;-73
2022/11/08 08:41:41;;;;;;;33.50;15.93;;;;;;;1.21;100.00;100612.16;1651308;87;21111;-71
2022/11/08 08:44:09;;;;;;;31.83;14.30;;;;;;;1.22;100.00;100602.73;1679839;85;21041;-72
2022/11/08 08:46:36;;;;;;;56.50;19.93;;;;;;;1.23;100.00;100595.59;1668272;85;21001;-69
2022/11/08 08:49:03;;;;;;;53.63;21.13;;;;;;;1.22;100.00;100588.09;1686580;85;21041;-76
2022/11/08 08:54:28;;;;;;;23.27;10.13;;;;;;;1.29;100.00;100585.86;1597376;88;21152;-70
2022/11/08 08:57:36;;;;;;;25.30;11.03;;;;;;;1.29;100.00;100580.08;1562115;90;21048;-80
2022/11/08 09:00:16;;;;;;;30.87;12.43;;;;;;;1.29;100.00;100568.09;1510235;94;21143;-79
2022/11/08 09:03:30;;;;;;;;;;;;;;;;;;;;;
2022/11/08 09:06:25;;;;;;;25.53;10.83;;;;;;;1.47;100.00;100576.70;1395785;102;21174;-79
2022/11/08 09:09:30;;;;;;;26.33;11.17;;;;;;;1.55;100.00;100567.34;1392418;101;21274;-81
2022/11/08 09:12:05;;;;;;;30.97;12.10;;;;;;;1.62;100.00;100561.98;1395258;102;21107;-71
2022/11/08 09:14:32;;;;;;;25.73;11.50;;;;;;;1.68;100.00;100559.78;1393053;102;21130;-73
2022/11/08 09:16:59;;;;;;;28.37;13.00;;;;;;;1.73;100.00;100556.80;1389754;102;21141;-70
2022/11/08 09:19:26;;;;;;;25.20;11.43;;;;;;;1.75;100.00;100556.20;1394062;102;21038;-69
2022/11/08 09:21:52;;;;;;;26.97;11.83;;;;;;;1.78;100.00;100553.83;1394934;101;21262;-74
2022/11/08 09:24:20;;;;;;;26.77;11.50;;;;;;;1.82;100.00;100550.84;1392807;102;21624;-73
2022/11/08 09:26:46;;;;;;;23.67;10.57;;;;;;;1.87;100.00;100555.87;1394121;102;21657;-72
2022/11/08 09:29:13;;;;;;;28.67;11.03;;;;;;;1.91;100.00;100553.38;1400497;102;21157;-71
2022/11/08 09:31:40;;;;;;;24.13;11.23;;;;;;;1.84;100.00;100540.95;1390774;101;21147;-71
2022/11/08 09:34:06;;;;;;;24.33;11.33;;;;;;;1.81;100.00;100529.16;1369103;102;21121;-74
2022/11/08 09:36:33;;;;;;;25.90;10.77;;;;;;;1.83;100.00;100523.23;1374653;104;21142;-72
2022/11/08 09:39:00;;;;;;;25.57;11.23;;;;;;;1.89;100.00;100517.95;1333877;106;21241;-69
2022/11/08 09:42:04;;;;;;;25.20;11.57;;;;;;;1.92;100.00;100519.09;1383854;103;21073;-71
2022/11/08 09:44:39;;;;;;;29.30;11.63;;;;;;;1.93;100.00;100511.48;1396302;102;21140;-69
2022/11/08 09:47:33;;;;;;;26.43;11.73;;;;;;;1.90;100.00;100499.19;1380218;103;21139;-71
2022/11/08 09:50:12;;;;;;;;;;;;;;;1.86;100.00;100504.37;1378091;103;21150;-72
2022/11/08 09:52:41;;;;;;;22.50;9.63;;;;;;;1.85;100.00;100490.64;1366392;104;20222;-81
2022/11/08 09:55:38;;;;;;;25.93;10.20;;;;;;;1.86;100.00;100493.70;1339264;107;21194;-78
2022/11/08 09:58:26;;;;;;;21.20;9.10;;;;;;;1.89;100.00;100492.62;1352799;105;21155;-80
2022/11/08 10:00:54;;;;;;;24.73;10.37;;;;;;;1.95;100.00;100491.34;1387942;103;21210;-82
2022/11/08 10:06:06;;;;;;;23.77;10.67;;;;;;;1.96;100.00;100487.73;1437273;98;21188;-75
2022/11/08 10:08:41;;;;;;;22.93;10.10;;;;;;;1.98;100.00;100483.98;1436735;100;21318;-73
2022/11/08 10:11:33;;;;;;;21.10;9.37;;;;;;;2.01;100.00;100472.27;1441234;100;21145;-74
2022/11/08 10:14:28;;;;;;;26.17;11.27;;;;;;;2.05;100.00;100470.63;1441526;96;21141;-73
2022/11/08 10:17:48;;;;;;;21.27;9.50;;;;;;;2.08;100.00;100457.05;1473929;95;21110;-76
2022/11/08 10:20:36;;;;;;;21.07;8.53;;;;;;;2.11;100.00;100454.67;1442416;98;21179;-80
2022/11/08 10:23:23;;;;;;;23.10;9.90;;;;;;;2.13;100.00;100443.41;1443197;99;21189;-74
2022/11/08 10:25:56;;;;;;;24.40;9.73;;;;;;;2.13;100.00;100443.91;1448995;99;21124;-74
2022/11/08 10:28:34;;;;;;;25.08;10.25;;;;;;;2.12;100.00;100434.17;1497106;94;21138;-73
2022/11/08 10:31:01;;;;;;;24.23;10.63;;;;;;;2.06;100.00;100432.30;1482292;97;21117;-72
2022/11/08 10:33:51;;;;;;;23.80;10.33;;;;;;;2.02;100.00;100422.82;1485049;97;21081;-79
2022/11/08 10:36:45;;;;;;;25.90;10.77;;;;;;;2.00;100.00;100414.53;1485580;97;21152;-77
2022/11/08 10:39:47;;;;;;;22.97;9.77;;;;;;;2.00;100.00;100403.87;1482893;97;21253;-80
2022/11/08 10:42:31;;;;;;;21.07;9.80;;;;;;;2.02;100.00;100400.15;1485857;97;21150;-69
2022/11/08 10:44:59;;;;;;;23.97;11.23;;;;;;;2.10;100.00;100400.94;1467010;97;21107;-73
2022/11/08 10:47:28;;;;;;;25.13;11.57;;;;;;;2.20;100.00;100410.00;1460482;98;21153;-72
2022/11/08 10:49:55;;;;;;;18.73;8.97;;;;;;;2.28;100.00;100397.44;1462934;95;21095;-73
2022/11/08 10:52:57;;;;;;;;;;;;;;;;;;;;;
2022/11/08 10:55:37;;;;;;;34.23;15.47;;;;;;;2.31;100.00;100398.56;1421888;101;21237;-72
2022/11/08 10:58:01;;;;;;;30.07;14.27;;;;;;;2.31;100.00;100389.23;1422853;101;21144;-73
2022/11/08 11:00:31;;;;;;;28.07;13.63;;;;;;;2.28;100.00;100392.98;1421130;100;21225;-71
2022/11/08 11:03:03;;;;;;;28.97;13.87;;;;;;;2.30;100.00;100390.66;1419654;101;21178;-72
2022/11/08 11:05:36;;;;;;;27.47;13.30;;;;;;;2.25;100.00;100389.19;1425299;99;21168;-73
2022/11/08 11:08:14;;;;;;;29.95;14.47;;;;;;;2.20;100.00;100377.98;1434648;98;21121;-74
2022/11/08 11:10:46;;;;;;;28.10;15.77;;;;;;;2.17;100.00;100378.69;1463503;98;21085;-73
2022/11/08 11:13:25;;;;;;;30.83;15.10;;;;;;;2.15;100.00;100380.61;1441968;100;21240;-74
2022/11/08 11:18:50;;;;;;;23.40;11.17;;;;;;;2.01;100.00;100371.76;1413660;101;21316;-73
2022/11/08 11:21:22;;;;;;;22.80;10.20;;;;;;;1.97;100.00;100364.09;1415212;101;21199;-75
2022/11/08 11:24:07;;;;;;;23.77;10.77;;;;;;;1.98;100.00;100373.30;1420989;101;21139;-73
2022/11/08 11:26:50;;;;;;;23.93;10.77;;;;;;;2.04;100.00;100369.37;1409206;101;21173;-72
2022/11/08 11:29:29;;;;;;;;;;;;;;;2.09;100.00;100367.23;1426394;99;21135;-69
2022/11/08 11:31:57;;;;;;;25.23;11.80;;;;;;;2.15;100.00;100364.61;1423470;101;20207;-71
2022/11/08 11:34:36;;;;;;;23.70;11.10;;;;;;;2.23;100.00;100364.44;1400847;102;21151;-70
2022/11/08 11:37:18;;;;;;;27.40;12.87;;;;;;;2.27;100.00;100370.41;1355707;106;21211;-70
2022/11/08 11:40:14;;;;;;;27.87;13.30;;;;;;;2.28;100.00;100362.75;1354919;106;21265;-73
2022/11/08 11:43:06;;;;;;;26.03;12.03;;;;;;;2.26;100.00;100358.85;1316993;109;21171;-74
2022/11/08 11:45:56;;;;;;;23.40;11.33;;;;;;;2.18;100.00;100353.23;1272565;111;21161;-74
2022/11/08 11:48:31;;;;;;;27.13;11.73;;;;;;;2.11;100.00;100353.76;1235480;115;21242;-74
2022/11/08 11:51:01;;;;;;;23.70;10.33;;;;;;;2.12;100.00;100356.81;1251625;114;21159;-74
2022/11/08 11:57:38;;;;;;;;;;;;;;;;;;;;;
2022/11/08 12:00:54;;;;;;;22.97;9.23;;;;;;;2.14;100.00;100353.06;1222363;116;21204;-73
2022/11/08 12:03:47;;;;;;;24.63;11.17;;;;;;;2.20;100.00;100348.64;1245989;113;21941;-75